Eaton, Wisconsin
Current Conditions -  °F | °C
As of 12:54 PM on Sunday 21 Dec 2014 (Local Time) from KMFI Reporting Station
Moderate Fog Moderate Fog  
Wind Chill: 25°   Ceiling: 100
Heat Index: 33°   Visibility: 0.25mi
Dew Point: 31°   Wind: 10mph
Humidity: 92%   Direction: 170°S
Pressure: 29.91"   Gusts: NA
Location:  44.7413°N, 90.6524°W
Report Text: KMFI 211854Z AUTO 17009KT 1/4SM FG OVC001 01/M01 A2991 RMK AO2 SNE12B43E53 SLP146 P0000 I1000 T00061006
Loading
Personal Weather Stations






























Interactive Weather Map New forecast layout! Learn more

10-Day Weather Forecast

Advertisements
Track Severe Weather on mobile